Time;durP1;ratioP1;P1;durP2;ratioP2;P2;SDS_P1;SDS_P2;PMS_P1;PMS_P2;Temp;Humidity;BMP_temperature;BMP_pressure;BME280_temperature;BME280_humidity;BME280_pressure;Samples;Min_cycle;Max_cycle;Signal;HPM_P1;HPM_P2
2024/03/13 00:02:04;;;;;;;227.83;63.77;;;;;;;;;;5026658;28;20175;-45
2024/03/13 00:04:45;;;;;;;223.63;59.20;;;;;;;;;;5027073;28;20505;-45
2024/03/13 00:07:12;;;;;;;230.07;64.50;;;;;;;;;;5024348;28;20567;-45
2024/03/13 00:09:45;;;;;;;230.82;66.35;;;;;;;;;;5029874;28;20176;-44
2024/03/13 00:12:11;;;;;;;227.52;62.17;;;;;;;;;;5029698;28;20659;-45
2024/03/13 00:14:37;;;;;;;226.75;62.35;;;;;;;;;;5030020;28;20179;-44
2024/03/13 00:17:04;;;;;;;226.57;60.97;;;;;;;;;;5029663;28;20575;-45
2024/03/13 00:19:30;;;;;;;230.10;64.03;;;;;;;;;;5033539;28;20509;-45
2024/03/13 00:21:56;;;;;;;229.25;63.60;;;;;;;;;;5030313;28;20570;-44
2024/03/13 00:24:24;;;;;;;231.02;65.40;;;;;;;;;;5033753;28;20246;-44
2024/03/13 00:26:51;;;;;;;229.20;64.07;;;;;;;;;;5032731;28;20199;-44
2024/03/13 00:29:17;;;;;;;228.68;62.22;;;;;;;;;;5033474;28;20195;-44
2024/03/13 00:31:44;;;;;;;227.68;61.47;;;;;;;;;;5029734;28;20194;-44
2024/03/13 00:34:10;;;;;;;233.00;66.07;;;;;;;;;;5029556;28;20674;-44
2024/03/13 00:36:37;;;;;;;225.93;59.47;;;;;;;;;;5029601;28;20629;-43
2024/03/13 00:39:03;;;;;;;227.10;61.72;;;;;;;;;;5029846;28;20246;-44
2024/03/13 00:41:29;;;;;;;227.70;61.65;;;;;;;;;;5033385;28;20179;-44
2024/03/13 00:43:55;;;;;;;229.33;63.67;;;;;;;;;;5029952;28;20333;-44
2024/03/13 00:46:24;;;;;;;226.07;61.40;;;;;;;;;;5029137;28;20453;-44
2024/03/13 00:48:50;;;;;;;229.75;62.90;;;;;;;;;;5032922;28;20487;-44
2024/03/13 00:51:16;;;;;;;227.73;64.15;;;;;;;;;;5032878;28;20171;-44
2024/03/13 00:53:42;;;;;;;228.67;64.17;;;;;;;;;;5032823;28;20186;-44
2024/03/13 00:56:11;;;;;;;231.05;65.55;;;;;;;;;;5032493;28;20456;-44
2024/03/13 00:58:38;;;;;;;227.13;60.95;;;;;;;;;;5033008;28;20203;-43
2024/03/13 01:01:04;;;;;;;232.07;66.55;;;;;;;;;;5032731;28;20183;-45
2024/03/13 01:03:30;;;;;;;228.98;64.78;;;;;;;;;;5032856;28;20196;-45
2024/03/13 01:05:56;;;;;;;225.10;60.37;;;;;;;;;;5032632;28;20250;-44
2024/03/13 01:08:24;;;;;;;226.93;61.20;;;;;;;;;;5032486;28;20497;-44
2024/03/13 01:10:52;;;;;;;225.73;61.00;;;;;;;;;;5032698;28;20417;-44
2024/03/13 01:13:21;;;;;;;230.55;64.45;;;;;;;;;;5032583;28;20194;-44
2024/03/13 01:15:47;;;;;;;229.02;62.45;;;;;;;;;;5032558;28;20191;-45
2024/03/13 01:18:14;;;;;;;228.98;62.50;;;;;;;;;;5032275;28;20294;-44
2024/03/13 01:20:40;;;;;;;229.70;64.10;;;;;;;;;;5032474;28;20175;-45
2024/03/13 01:23:06;;;;;;;226.98;61.22;;;;;;;;;;5032747;28;20516;-45
2024/03/13 01:25:32;;;;;;;228.07;63.57;;;;;;;;;;5031437;28;20217;-45
2024/03/13 01:28:00;;;;;;;224.10;59.83;;;;;;;;;;5032296;28;20413;-44
2024/03/13 01:30:26;;;;;;;228.27;62.83;;;;;;;;;;5032515;28;20775;-43
2024/03/13 01:32:52;;;;;;;232.57;65.57;;;;;;;;;;5031816;28;20666;-44
2024/03/13 01:35:19;;;;;;;230.23;63.77;;;;;;;;;;5031439;28;20207;-44
2024/03/13 01:38:01;;;;;;;231.30;64.82;;;;;;;;;;5031778;28;20497;-44
2024/03/13 01:57:02;;;;;;;229.55;66.40;;;;;;;;;;5031369;28;20217;-45
2024/03/13 01:59:38;;;;;;;225.98;62.88;;;;;;;;;;5031816;28;20171;-44
2024/03/13 02:02:24;;;;;;;227.93;62.88;;;;;;;;;;5031038;28;20627;-45
2024/03/13 02:04:51;;;;;;;226.60;61.05;;;;;;;;;;5031274;28;20179;-44
2024/03/13 02:07:18;;;;;;;229.45;64.28;;;;;;;;;;5030431;28;20189;-44
2024/03/13 02:09:45;;;;;;;227.75;62.28;;;;;;;;;;5031353;28;20183;-44
2024/03/13 02:12:11;;;;;;;229.00;63.00;;;;;;;;;;5031378;28;20253;-44
2024/03/13 02:14:38;;;;;;;228.15;62.75;;;;;;;;;;5031438;28;20765;-45
2024/03/13 02:17:06;;;;;;;228.63;63.47;;;;;;;;;;5030756;28;20210;-44
2024/03/13 02:19:32;;;;;;;226.13;60.83;;;;;;;;;;5031482;28;20171;-45
2024/03/13 02:22:00;;;;;;;227.07;61.97;;;;;;;;;;5031403;28;20543;-44
2024/03/13 02:24:27;;;;;;;224.73;60.28;;;;;;;;;;5031318;28;20241;-44
2024/03/13 02:26:53;;;;;;;224.30;60.38;;;;;;;;;;5030990;28;20261;-46
2024/03/13 02:29:19;;;;;;;228.25;63.70;;;;;;;;;;5031224;28;20187;-44
2024/03/13 02:31:46;;;;;;;225.68;59.88;;;;;;;;;;5031114;28;20699;-44
2024/03/13 02:34:13;;;;;;;227.23;61.13;;;;;;;;;;5031035;28;20670;-44
2024/03/13 02:36:39;;;;;;;227.25;61.85;;;;;;;;;;5030621;28;20218;-44
2024/03/13 02:39:05;;;;;;;224.53;60.80;;;;;;;;;;5031132;28;20175;-44
2024/03/13 02:41:31;;;;;;;226.07;60.17;;;;;;;;;;5031297;28;20448;-44
2024/03/13 02:43:58;;;;;;;225.80;61.22;;;;;;;;;;5030900;28;20902;-44
2024/03/13 02:46:24;;;;;;;226.15;61.47;;;;;;;;;;5030524;28;20183;-45
2024/03/13 02:48:51;;;;;;;224.75;60.42;;;;;;;;;;5030989;28;20590;-44
2024/03/13 02:51:17;;;;;;;227.00;60.92;;;;;;;;;;5030993;28;20178;-44
2024/03/13 02:53:43;;;;;;;225.33;60.20;;;;;;;;;;5031112;28;20179;-44
2024/03/13 02:56:09;;;;;;;224.73;59.10;;;;;;;;;;5030455;28;20441;-44
2024/03/13 02:58:35;;;;;;;225.80;62.37;;;;;;;;;;5030608;28;20939;-45
2024/03/13 03:01:01;;;;;;;224.40;60.20;;;;;;;;;;5028603;28;20448;-44
2024/03/13 03:03:30;;;;;;;224.02;59.83;;;;;;;;;;5030923;28;20171;-44
2024/03/13 03:05:56;;;;;;;227.35;62.50;;;;;;;;;;5030158;28;20567;-44
2024/03/13 03:08:22;;;;;;;225.35;59.67;;;;;;;;;;5026948;28;20198;-44
2024/03/13 03:10:48;;;;;;;225.93;60.78;;;;;;;;;;5033065;28;20190;-44
2024/03/13 03:13:14;;;;;;;227.75;63.47;;;;;;;;;;5028530;28;20175;-45
2024/03/13 03:15:42;;;;;;;227.13;62.22;;;;;;;;;;5026738;28;20290;-44
2024/03/13 03:18:11;;;;;;;225.02;60.55;;;;;;;;;;5030098;28;20692;-44
2024/03/13 03:20:37;;;;;;;223.65;59.63;;;;;;;;;;5030398;28;20659;-44
2024/03/13 03:23:03;;;;;;;226.47;60.13;;;;;;;;;;5027372;28;20238;-44
2024/03/13 03:25:29;;;;;;;226.87;61.37;;;;;;;;;;5026847;28;20770;-44
2024/03/13 03:27:59;;;;;;;228.05;62.63;;;;;;;;;;5027663;28;20425;-45
2024/03/13 03:30:30;;;;;;;225.70;60.03;;;;;;;;;;5030396;28;20568;-44
2024/03/13 03:32:56;;;;;;;229.88;65.90;;;;;;;;;;5029559;28;20176;-44
2024/03/13 03:35:23;;;;;;;226.52;61.58;;;;;;;;;;5029440;28;20217;-44
2024/03/13 03:37:51;;;;;;;228.02;63.15;;;;;;;;;;5030069;28;20666;-45
2024/03/13 03:40:19;;;;;;;226.65;61.85;;;;;;;;;;5026744;28;20172;-44
2024/03/13 03:42:48;;;;;;;231.55;65.88;;;;;;;;;;5027512;28;20175;-44
2024/03/13 03:45:16;;;;;;;230.20;65.93;;;;;;;;;;5029747;28;20286;-44
2024/03/13 03:47:42;;;;;;;227.63;60.42;;;;;;;;;;5030650;28;20572;-44
2024/03/13 03:50:08;;;;;;;227.50;62.30;;;;;;;;;;5031519;28;20180;-43
2024/03/13 03:52:35;;;;;;;228.10;62.90;;;;;;;;;;5034080;28;20424;-42
2024/03/13 03:55:02;;;;;;;230.75;64.45;;;;;;;;;;5030102;28;20607;-43
2024/03/13 03:57:28;;;;;;;226.25;60.42;;;;;;;;;;5030125;28;20202;-44
2024/03/13 03:59:54;;;;;;;226.80;60.87;;;;;;;;;;5033973;28;20179;-46
2024/03/13 04:02:20;;;;;;;228.27;61.30;;;;;;;;;;5033734;28;20406;-45
2024/03/13 04:04:46;;;;;;;227.00;61.43;;;;;;;;;;5030343;28;20223;-43
2024/03/13 04:07:12;;;;;;;228.55;62.55;;;;;;;;;;5033282;28;20433;-43
2024/03/13 04:09:38;;;;;;;227.53;62.70;;;;;;;;;;5033744;28;20176;-43
2024/03/13 04:12:04;;;;;;;228.07;62.87;;;;;;;;;;5030559;28;20441;-43
2024/03/13 04:14:30;;;;;;;227.65;61.75;;;;;;;;;;5033793;28;20935;-42
2024/03/13 04:16:56;;;;;;;226.47;60.57;;;;;;;;;;5033140;28;20207;-43
2024/03/13 04:19:23;;;;;;;228.03;62.47;;;;;;;;;;5030171;28;20406;-44
2024/03/13 04:21:49;;;;;;;227.98;62.92;;;;;;;;;;5030019;28;20971;-44
2024/03/13 04:24:15;;;;;;;230.00;64.80;;;;;;;;;;5030507;28;20176;-46
2024/03/13 04:26:41;;;;;;;227.35;63.08;;;;;;;;;;5032909;28;20418;-46
2024/03/13 04:29:07;;;;;;;228.90;62.42;;;;;;;;;;5033310;28;20655;-43
2024/03/13 04:31:39;;;;;;;229.57;65.85;;;;;;;;;;5033274;28;20175;-43
2024/03/13 04:34:07;;;;;;;227.75;63.13;;;;;;;;;;5030394;28;20237;-42
2024/03/13 04:36:38;;;;;;;230.18;64.57;;;;;;;;;;5029211;28;20583;-43
2024/03/13 04:39:05;;;;;;;226.20;61.60;;;;;;;;;;5029940;28;20195;-45
2024/03/13 04:41:33;;;;;;;231.75;66.40;;;;;;;;;;5033458;28;20182;-43
2024/03/13 04:43:59;;;;;;;231.93;65.72;;;;;;;;;;5033322;28;20255;-43
2024/03/13 04:46:25;;;;;;;232.00;67.57;;;;;;;;;;5029346;28;20188;-43
2024/03/13 04:48:52;;;;;;;230.30;64.67;;;;;;;;;;5030783;28;20190;-43
2024/03/13 04:51:18;;;;;;;230.55;63.17;;;;;;;;;;5031676;28;20436;-43
2024/03/13 04:53:44;;;;;;;232.45;66.03;;;;;;;;;;5029503;28;20560;-44
2024/03/13 04:56:13;;;;;;;229.67;61.43;;;;;;;;;;5032404;28;20207;-46
2024/03/13 04:58:39;;;;;;;229.55;62.53;;;;;;;;;;5032496;28;20904;-43
2024/03/13 05:01:05;;;;;;;232.23;65.72;;;;;;;;;;5032315;28;20197;-42
2024/03/13 05:03:31;;;;;;;229.10;62.17;;;;;;;;;;5033066;28;20179;-43
2024/03/13 05:05:57;;;;;;;231.05;63.85;;;;;;;;;;5032736;28;20215;-43
2024/03/13 05:08:23;;;;;;;233.00;67.10;;;;;;;;;;5032278;28;20179;-43
2024/03/13 05:10:49;;;;;;;232.17;65.33;;;;;;;;;;5032795;28;20183;-44
2024/03/13 05:13:15;;;;;;;229.93;63.17;;;;;;;;;;5032564;28;20413;-42
2024/03/13 05:15:41;;;;;;;232.10;67.10;;;;;;;;;;5032434;28;20492;-43
2024/03/13 05:18:09;;;;;;;231.85;64.15;;;;;;;;;;5032318;28;20195;-42
2024/03/13 05:20:35;;;;;;;230.75;62.85;;;;;;;;;;5032504;28;20639;-44
2024/03/13 05:23:06;;;;;;;227.97;62.00;;;;;;;;;;5032520;28;20186;-46
2024/03/13 05:25:32;;;;;;;231.98;64.68;;;;;;;;;;5032260;28;20426;-42
2024/03/13 05:27:58;;;;;;;229.17;62.73;;;;;;;;;;5032668;28;20302;-42
2024/03/13 05:30:24;;;;;;;231.18;65.35;;;;;;;;;;5032315;28;20787;-43
2024/03/13 05:32:50;;;;;;;234.38;68.47;;;;;;;;;;5032262;28;20258;-43
2024/03/13 05:35:16;;;;;;;237.57;72.80;;;;;;;;;;5031081;28;20285;-44
2024/03/13 05:37:42;;;;;;;230.15;63.78;;;;;;;;;;5032031;28;20503;-46
2024/03/13 05:40:12;;;;;;;233.40;66.80;;;;;;;;;;5031951;28;20177;-45
2024/03/13 05:42:41;;;;;;;229.35;61.63;;;;;;;;;;5032111;28;20230;-42
2024/03/13 05:45:08;;;;;;;240.18;72.57;;;;;;;;;;5031706;28;20202;-44
2024/03/13 05:47:34;;;;;;;228.57;62.47;;;;;;;;;;5031879;28;20262;-43
2024/03/13 05:50:00;;;;;;;230.52;62.63;;;;;;;;;;5032293;28;20181;-43
2024/03/13 05:52:26;;;;;;;230.85;65.18;;;;;;;;;;5027271;28;20207;-43
2024/03/13 05:54:52;;;;;;;229.23;62.90;;;;;;;;;;5031999;28;20571;-43
2024/03/13 05:57:24;;;;;;;230.68;64.13;;;;;;;;;;5031436;28;20545;-44
2024/03/13 05:59:50;;;;;;;229.90;65.28;;;;;;;;;;5031760;28;20186;-46
2024/03/13 06:02:16;;;;;;;233.68;68.65;;;;;;;;;;5030934;28;20176;-49
2024/03/13 06:04:43;;;;;;;229.23;62.88;;;;;;;;;;5030738;28;20674;-43
2024/03/13 06:07:09;;;;;;;229.63;64.90;;;;;;;;;;5027706;28;20506;-43
2024/03/13 06:09:38;;;;;;;227.57;63.30;;;;;;;;;;5031339;28;20623;-47
2024/03/13 06:12:04;;;;;;;227.88;61.50;;;;;;;;;;5027974;28;20716;-43
2024/03/13 06:14:30;;;;;;;230.80;66.05;;;;;;;;;;5033159;28;20564;-45
2024/03/13 06:16:56;;;;;;;227.82;61.70;;;;;;;;;;5028239;28;20214;-46
2024/03/13 06:19:23;;;;;;;228.07;62.95;;;;;;;;;;5030681;28;20190;-47
2024/03/13 06:21:49;;;;;;;227.77;61.55;;;;;;;;;;5027778;28;20171;-44
2024/03/13 06:24:20;;;;;;;228.35;61.22;;;;;;;;;;5031127;28;20274;-43
2024/03/13 06:26:48;;;;;;;227.13;61.60;;;;;;;;;;5030692;28;20191;-43
2024/03/13 06:32:00;;;;;;;224.93;59.00;;;;;;;;;;5027946;28;20183;-43
2024/03/13 06:34:26;;;;;;;227.80;62.47;;;;;;;;;;5022907;28;20249;-44
2024/03/13 06:36:52;;;;;;;225.00;60.07;;;;;;;;;;5030436;28;20705;-44
2024/03/13 06:39:21;;;;;;;230.07;64.37;;;;;;;;;;5031073;28;20489;-46
2024/03/13 06:41:50;;;;;;;228.98;63.67;;;;;;;;;;5029224;28;20406;-43
2024/03/13 06:44:16;;;;;;;224.25;59.47;;;;;;;;;;5029458;28;20167;-44
2024/03/13 06:46:43;;;;;;;226.23;62.47;;;;;;;;;;5027139;28;20201;-44
2024/03/13 06:49:08;;;;;;;226.60;60.30;;;;;;;;;;5027395;28;20410;-43
2024/03/13 06:51:34;;;;;;;226.27;60.40;;;;;;;;;;5030751;28;20206;-44
2024/03/13 06:54:00;;;;;;;228.30;62.27;;;;;;;;;;5030611;28;20406;-44
2024/03/13 06:56:27;;;;;;;226.97;61.77;;;;;;;;;;5027189;28;20464;-44
2024/03/13 06:58:53;;;;;;;226.45;60.97;;;;;;;;;;5028218;28;20462;-43
2024/03/13 07:01:20;;;;;;;229.63;63.80;;;;;;;;;;5029822;28;20224;-44
2024/03/13 07:03:46;;;;;;;227.50;63.13;;;;;;;;;;5027531;28;20263;-43
2024/03/13 07:06:14;;;;;;;230.27;67.00;;;;;;;;;;5030227;28;20759;-43
2024/03/13 07:08:40;;;;;;;228.50;61.92;;;;;;;;;;5030358;28;20831;-42
2024/03/13 07:11:06;;;;;;;226.37;62.80;;;;;;;;;;5030492;28;20179;-43
2024/03/13 07:13:33;;;;;;;228.95;64.25;;;;;;;;;;5027268;28;20406;-43
2024/03/13 07:16:00;;;;;;;228.25;62.17;;;;;;;;;;5027105;28;20283;-44
2024/03/13 07:18:26;;;;;;;228.70;62.92;;;;;;;;;;5030171;28;20279;-43
2024/03/13 07:20:52;;;;;;;231.25;65.47;;;;;;;;;;5030370;28;20171;-42
2024/03/13 07:23:18;;;;;;;229.23;64.60;;;;;;;;;;5032391;28;20170;-43
2024/03/13 07:25:44;;;;;;;227.53;61.87;;;;;;;;;;5030828;28;20441;-43
2024/03/13 07:28:13;;;;;;;229.77;63.60;;;;;;;;;;5031318;28;20442;-43
2024/03/13 07:30:39;;;;;;;230.63;65.85;;;;;;;;;;5031045;28;20988;-44
2024/03/13 07:33:08;;;;;;;230.07;62.07;;;;;;;;;;5034265;28;20207;-47
2024/03/13 07:35:34;;;;;;;229.68;64.13;;;;;;;;;;5033746;28;20461;-43
2024/03/13 07:38:00;;;;;;;229.90;62.35;;;;;;;;;;5030710;28;20648;-46
2024/03/13 07:40:26;;;;;;;230.48;63.60;;;;;;;;;;5030917;28;20218;-46
2024/03/13 07:42:52;;;;;;;232.18;63.53;;;;;;;;;;5034266;28;20322;-43
2024/03/13 07:45:18;;;;;;;233.68;68.72;;;;;;;;;;5030483;28;20199;-42
2024/03/13 07:47:44;;;;;;;232.43;65.30;;;;;;;;;;5034124;28;20654;-42
2024/03/13 07:50:10;;;;;;;233.47;66.87;;;;;;;;;;5034209;28;20509;-46
2024/03/13 07:52:37;;;;;;;232.93;64.67;;;;;;;;;;5033988;28;20414;-43
2024/03/13 07:55:04;;;;;;;235.60;66.40;;;;;;;;;;5027073;28;20414;-43
2024/03/13 07:57:30;;;;;;;232.30;63.97;;;;;;;;;;5033864;28;20257;-43
2024/03/13 07:59:56;;;;;;;234.13;66.85;;;;;;;;;;5030585;28;20175;-43
2024/03/13 08:02:22;;;;;;;230.63;62.23;;;;;;;;;;5033773;28;20179;-43
2024/03/13 08:04:48;;;;;;;236.02;68.57;;;;;;;;;;5033586;28;20417;-43
2024/03/13 08:07:14;;;;;;;231.63;61.93;;;;;;;;;;5030150;28;20215;-45
2024/03/13 08:09:40;;;;;;;234.60;67.13;;;;;;;;;;5030151;28;20406;-44
2024/03/13 08:12:06;;;;;;;233.80;64.17;;;;;;;;;;5033562;28;20204;-46
2024/03/13 08:14:34;;;;;;;236.52;71.88;;;;;;;;;;5033606;28;20414;-48
2024/03/13 08:20:03;;;;;;;232.18;64.82;;;;;;;;;;5026493;28;20174;-43
2024/03/13 08:22:29;;;;;;;234.75;66.07;;;;;;;;;;5033402;28;20176;-43
2024/03/13 08:24:55;;;;;;;233.10;64.10;;;;;;;;;;5030753;28;20557;-51
2024/03/13 08:27:21;;;;;;;236.25;69.00;;;;;;;;;;5033105;28;20816;-43
2024/03/13 08:29:47;;;;;;;232.65;65.75;;;;;;;;;;5030096;28;20191;-47
2024/03/13 08:32:13;;;;;;;233.10;65.22;;;;;;;;;;5029772;28;20179;-43
2024/03/13 08:34:39;;;;;;;232.47;65.03;;;;;;;;;;5033006;28;20551;-45
2024/03/13 08:37:07;;;;;;;238.07;69.07;;;;;;;;;;5032812;28;20466;-46
2024/03/13 08:39:33;;;;;;;234.00;65.68;;;;;;;;;;5033119;28;20774;-43
2024/03/13 08:41:58;;;;;;;233.97;65.03;;;;;;;;;;5033324;28;20176;-46
2024/03/13 08:44:24;;;;;;;231.77;63.07;;;;;;;;;;5032652;28;20426;-44
2024/03/13 08:46:50;;;;;;;232.83;64.07;;;;;;;;;;5032512;28;20433;-44
2024/03/13 08:49:16;;;;;;;236.27;67.33;;;;;;;;;;5034024;28;20410;-45
2024/03/13 08:51:42;;;;;;;235.17;67.90;;;;;;;;;;5032716;28;20430;-46
2024/03/13 08:54:11;;;;;;;232.60;66.20;;;;;;;;;;5032852;28;20420;-44
2024/03/13 08:56:38;;;;;;;231.63;61.63;;;;;;;;;;5032402;28;20434;-44
2024/03/13 08:59:04;;;;;;;233.25;66.07;;;;;;;;;;5032817;28;20179;-43
2024/03/13 09:01:31;;;;;;;236.35;68.43;;;;;;;;;;5033003;28;20198;-44
2024/03/13 09:03:57;;;;;;;236.55;68.72;;;;;;;;;;5032809;28;20183;-44
2024/03/13 09:06:23;;;;;;;232.57;62.83;;;;;;;;;;5032428;28;20234;-46
2024/03/13 09:08:49;;;;;;;232.67;63.43;;;;;;;;;;5032700;28;20446;-43
2024/03/13 09:11:18;;;;;;;232.07;63.57;;;;;;;;;;5032691;28;20998;-43
2024/03/13 09:13:44;;;;;;;235.30;65.32;;;;;;;;;;5032406;28;20912;-46
2024/03/13 09:16:14;;;;;;;237.67;68.07;;;;;;;;;;5032247;28;20284;-43
2024/03/13 09:18:40;;;;;;;236.48;68.28;;;;;;;;;;5032419;28;20856;-43
2024/03/13 09:21:06;;;;;;;236.35;67.80;;;;;;;;;;5032515;28;20663;-43
2024/03/13 09:23:32;;;;;;;235.63;66.03;;;;;;;;;;5033159;28;20173;-44
2024/03/13 09:25:59;;;;;;;234.77;64.35;;;;;;;;;;5032539;28;20434;-43
2024/03/13 09:28:27;;;;;;;236.60;67.47;;;;;;;;;;5032115;28;20287;-44
2024/03/13 09:30:53;;;;;;;236.63;66.60;;;;;;;;;;5032269;28;20647;-43
2024/03/13 09:33:19;;;;;;;235.83;66.07;;;;;;;;;;5032291;28;20228;-43
2024/03/13 09:35:45;;;;;;;235.97;67.60;;;;;;;;;;5031867;28;20834;-43
2024/03/13 09:38:12;;;;;;;237.87;67.60;;;;;;;;;;5030717;28;20533;-45
2024/03/13 09:40:38;;;;;;;232.48;61.97;;;;;;;;;;5031905;28;20438;-45
2024/03/13 09:43:05;;;;;;;233.67;64.10;;;;;;;;;;5031935;28;20222;-43
2024/03/13 09:45:30;;;;;;;238.45;69.22;;;;;;;;;;5031329;28;20425;-43
2024/03/13 09:47:57;;;;;;;235.53;65.27;;;;;;;;;;5031987;28;20612;-44
2024/03/13 09:50:23;;;;;;;236.70;67.20;;;;;;;;;;5032583;28;20459;-47
2024/03/13 09:52:49;;;;;;;238.82;68.50;;;;;;;;;;5031980;28;20182;-47
2024/03/13 09:55:18;;;;;;;243.32;73.43;;;;;;;;;;5031329;28;20192;-47
2024/03/13 09:57:48;;;;;;;236.63;66.20;;;;;;;;;;5031622;28;20688;-46
2024/03/13 10:00:14;;;;;;;232.68;63.40;;;;;;;;;;5031802;28;20646;-46
2024/03/13 10:02:42;;;;;;;238.63;69.88;;;;;;;;;;5031974;28;20694;-47
2024/03/13 10:05:14;;;;;;;240.18;70.85;;;;;;;;;;5031412;28;20173;-47
2024/03/13 10:07:40;;;;;;;237.73;66.85;;;;;;;;;;5031264;28;20175;-48
2024/03/13 10:10:26;;;;;;;234.25;63.95;;;;;;;;;;5030706;28;20666;-45
2024/03/13 10:12:52;;;;;;;238.35;68.30;;;;;;;;;;5030768;28;20229;-47
2024/03/13 10:15:19;;;;;;;243.80;72.35;;;;;;;;;;5031108;28;20201;-46
2024/03/13 10:17:48;;;;;;;238.68;70.18;;;;;;;;;;5031409;28;20199;-47
2024/03/13 10:20:20;;;;;;;234.45;62.70;;;;;;;;;;5031333;28;20197;-47
2024/03/13 10:22:47;;;;;;;237.73;68.07;;;;;;;;;;5031419;28;20169;-46
2024/03/13 10:25:15;;;;;;;241.90;72.10;;;;;;;;;;5030876;28;20201;-48
2024/03/13 10:27:42;;;;;;;232.85;61.40;;;;;;;;;;5031418;28;20197;-47
2024/03/13 10:30:10;;;;;;;236.55;64.55;;;;;;;;;;5031429;28;20174;-47
2024/03/13 10:32:36;;;;;;;236.00;65.43;;;;;;;;;;5031292;28;20173;-46
2024/03/13 10:35:05;;;;;;;239.83;68.27;;;;;;;;;;5030512;28;20177;-46
2024/03/13 10:37:31;;;;;;;239.43;69.13;;;;;;;;;;5031014;28;20460;-47
2024/03/13 10:39:58;;;;;;;237.82;67.32;;;;;;;;;;5031079;28;20276;-46
2024/03/13 10:42:24;;;;;;;238.35;69.05;;;;;;;;;;5030981;28;20185;-46
2024/03/13 10:44:50;;;;;;;235.17;62.27;;;;;;;;;;5030928;28;20250;-46
2024/03/13 10:47:16;;;;;;;238.52;66.55;;;;;;;;;;5030575;28;20413;-45
2024/03/13 10:49:42;;;;;;;238.45;67.78;;;;;;;;;;5030238;28;20220;-45
2024/03/13 10:52:12;;;;;;;241.60;72.07;;;;;;;;;;5029513;28;20214;-48
2024/03/13 10:54:38;;;;;;;239.80;68.57;;;;;;;;;;5029445;28;20423;-46
2024/03/13 10:57:04;;;;;;;238.53;67.13;;;;;;;;;;5027916;28;20204;-47
2024/03/13 10:59:30;;;;;;;237.27;67.78;;;;;;;;;;5028812;28;20405;-47
2024/03/13 11:01:57;;;;;;;241.38;70.18;;;;;;;;;;5028859;28;20181;-47
2024/03/13 11:04:26;;;;;;;240.40;68.65;;;;;;;;;;5028501;28;20172;-46
2024/03/13 11:06:53;;;;;;;241.45;70.35;;;;;;;;;;5028566;28;20233;-45
2024/03/13 11:09:22;;;;;;;241.43;71.35;;;;;;;;;;5029203;28;20182;-46
2024/03/13 11:11:51;;;;;;;238.13;67.03;;;;;;;;;;5030772;28;20174;-47
2024/03/13 11:14:18;;;;;;;241.15;71.95;;;;;;;;;;5030741;28;20177;-46
2024/03/13 11:16:47;;;;;;;243.05;73.93;;;;;;;;;;5029990;28;20250;-47
2024/03/13 11:19:17;;;;;;;239.45;69.30;;;;;;;;;;5030595;28;20180;-48
2024/03/13 11:21:52;;;;;;;243.55;75.15;;;;;;;;;;5029514;28;20244;-47
2024/03/13 11:24:25;;;;;;;238.23;67.07;;;;;;;;;;5030453;28;20225;-47
2024/03/13 11:26:52;;;;;;;238.02;68.72;;;;;;;;;;5030216;28;20194;-48
2024/03/13 11:29:20;;;;;;;240.27;70.50;;;;;;;;;;5030337;28;20185;-47
2024/03/13 11:31:49;;;;;;;245.40;75.90;;;;;;;;;;5030477;28;20608;-48
2024/03/13 11:34:15;;;;;;;243.00;75.43;;;;;;;;;;5030567;28;20654;-49
2024/03/13 11:36:42;;;;;;;240.70;70.27;;;;;;;;;;5030528;28;20265;-48
2024/03/13 11:39:15;;;;;;;241.63;72.78;;;;;;;;;;5030658;28;20417;-48
2024/03/13 11:41:42;;;;;;;238.75;68.70;;;;;;;;;;5030445;28;20718;-47
2024/03/13 11:44:08;;;;;;;238.50;70.95;;;;;;;;;;5030171;28;20655;-46
2024/03/13 11:46:44;;;;;;;239.65;72.65;;;;;;;;;;5030076;28;20602;-48
2024/03/13 11:49:11;;;;;;;239.75;70.75;;;;;;;;;;5029614;28;20174;-48
2024/03/13 11:51:37;;;;;;;240.50;70.30;;;;;;;;;;5030055;28;20171;-48
2024/03/13 11:54:12;;;;;;;245.87;75.27;;;;;;;;;;5030023;28;20554;-47
2024/03/13 11:56:42;;;;;;;247.07;79.07;;;;;;;;;;5029939;28;20414;-47
2024/03/13 11:59:08;;;;;;;243.23;72.78;;;;;;;;;;5029858;28;20191;-48
2024/03/13 12:01:35;;;;;;;240.27;72.38;;;;;;;;;;5029562;28;20184;-45
2024/03/13 12:04:05;;;;;;;239.45;70.15;;;;;;;;;;5028701;28;20175;-47
2024/03/13 12:06:37;;;;;;;244.00;76.05;;;;;;;;;;5029720;28;20198;-48
2024/03/13 12:09:09;;;;;;;243.00;76.38;;;;;;;;;;5030934;28;20176;-47
2024/03/13 12:11:37;;;;;;;240.43;70.85;;;;;;;;;;5033701;28;20684;-46
2024/03/13 12:14:03;;;;;;;239.00;70.30;;;;;;;;;;5032489;28;20183;-46
2024/03/13 12:16:29;;;;;;;243.07;73.88;;;;;;;;;;5033273;28;20238;-47
2024/03/13 12:18:56;;;;;;;240.80;70.23;;;;;;;;;;5033643;28;20226;-48
2024/03/13 12:21:26;;;;;;;243.27;72.70;;;;;;;;;;5033413;28;20416;-46
2024/03/13 12:23:52;;;;;;;242.20;72.47;;;;;;;;;;5033891;28;20180;-48
2024/03/13 12:26:19;;;;;;;239.70;69.07;;;;;;;;;;5033321;28;20241;-48
2024/03/13 12:28:45;;;;;;;242.20;71.43;;;;;;;;;;5033502;28;20210;-47
2024/03/13 12:31:11;;;;;;;241.75;70.00;;;;;;;;;;5033319;28;20190;-49
2024/03/13 12:33:37;;;;;;;241.67;70.90;;;;;;;;;;5033191;28;20551;-45
2024/03/13 12:36:04;;;;;;;242.13;73.65;;;;;;;;;;5032740;28;20474;-46
2024/03/13 12:38:36;;;;;;;239.93;70.82;;;;;;;;;;5032894;28;20248;-47
2024/03/13 12:41:03;;;;;;;242.30;75.95;;;;;;;;;;5031803;28;20182;-47
2024/03/13 12:43:29;;;;;;;242.90;70.97;;;;;;;;;;5031436;28;20201;-46
2024/03/13 12:45:55;;;;;;;239.95;67.80;;;;;;;;;;5031217;28;20195;-46
2024/03/13 12:48:21;;;;;;;241.85;70.15;;;;;;;;;;5031141;28;20204;-47
2024/03/13 12:50:47;;;;;;;240.97;70.30;;;;;;;;;;5031235;28;20608;-46
2024/03/13 12:53:13;;;;;;;240.30;71.17;;;;;;;;;;5031626;28;20448;-43
2024/03/13 12:55:40;;;;;;;245.77;76.45;;;;;;;;;;5031028;28;20437;-46
2024/03/13 12:58:08;;;;;;;243.13;73.47;;;;;;;;;;5031390;28;20206;-47
2024/03/13 13:00:36;;;;;;;240.90;71.95;;;;;;;;;;5032621;28;20504;-48
2024/03/13 13:03:05;;;;;;;243.50;73.30;;;;;;;;;;5032223;28;20552;-45
2024/03/13 13:05:33;;;;;;;240.48;69.38;;;;;;;;;;5031831;28;20188;-47
2024/03/13 13:07:59;;;;;;;242.70;71.47;;;;;;;;;;5033053;28;20180;-45
2024/03/13 13:10:26;;;;;;;238.38;67.68;;;;;;;;;;5032781;28;20235;-46
2024/03/13 13:12:52;;;;;;;240.77;69.70;;;;;;;;;;5033129;28;20653;-48
2024/03/13 13:15:19;;;;;;;247.05;74.97;;;;;;;;;;5032331;28;20228;-47
2024/03/13 13:17:45;;;;;;;240.88;67.82;;;;;;;;;;5032593;28;20204;-48
2024/03/13 13:20:12;;;;;;;241.97;72.80;;;;;;;;;;5031869;28;20175;-47
2024/03/13 13:22:41;;;;;;;241.40;70.57;;;;;;;;;;5032445;28;20406;-48
2024/03/13 13:25:11;;;;;;;244.60;72.18;;;;;;;;;;5032028;28;20228;-48
2024/03/13 13:27:42;;;;;;;237.20;64.53;;;;;;;;;;5032439;28;20189;-47
2024/03/13 13:30:13;;;;;;;242.30;71.00;;;;;;;;;;5032265;28;20262;-47
2024/03/13 13:32:40;;;;;;;241.05;71.50;;;;;;;;;;5032685;28;20627;-47
2024/03/13 13:35:06;;;;;;;245.50;74.53;;;;;;;;;;5031903;28;20205;-46
2024/03/13 13:37:34;;;;;;;237.60;65.18;;;;;;;;;;5032452;28;20199;-47
2024/03/13 13:40:00;;;;;;;239.55;69.00;;;;;;;;;;5032253;28;20251;-47
2024/03/13 13:42:26;;;;;;;240.68;69.68;;;;;;;;;;5035322;28;20166;-46
2024/03/13 13:44:54;;;;;;;239.47;68.40;;;;;;;;;;5030738;28;20638;-45
2024/03/13 13:47:20;;;;;;;242.32;70.80;;;;;;;;;;5031789;28;20436;-46
2024/03/13 13:49:49;;;;;;;246.07;76.88;;;;;;;;;;5029627;28;20173;-46
2024/03/13 13:52:15;;;;;;;244.07;75.78;;;;;;;;;;5030314;28;20189;-46
2024/03/13 13:54:41;;;;;;;243.57;74.67;;;;;;;;;;5031793;28;20257;-46
2024/03/13 13:57:10;;;;;;;240.90;69.00;;;;;;;;;;5030336;28;20440;-48
2024/03/13 13:59:36;;;;;;;244.38;77.35;;;;;;;;;;5029889;28;20504;-48
2024/03/13 14:02:04;;;;;;;238.68;68.10;;;;;;;;;;5031630;28;20194;-47
2024/03/13 14:04:30;;;;;;;243.90;78.70;;;;;;;;;;5031411;28;20320;-46
2024/03/13 14:06:57;;;;;;;241.33;74.77;;;;;;;;;;5031214;28;20709;-48
2024/03/13 14:09:25;;;;;;;244.77;77.45;;;;;;;;;;5030982;28;20417;-47
2024/03/13 14:11:51;;;;;;;247.32;81.28;;;;;;;;;;5031548;28;20168;-48
2024/03/13 14:14:16;;;;;;;240.53;70.70;;;;;;;;;;5031558;28;20688;-49
2024/03/13 14:16:42;;;;;;;242.67;76.60;;;;;;;;;;5031229;28;20939;-47
2024/03/13 14:19:12;;;;;;;241.77;72.63;;;;;;;;;;5030927;28;20465;-47
2024/03/13 14:21:39;;;;;;;239.73;71.43;;;;;;;;;;5031622;28;20408;-47
2024/03/13 14:24:06;;;;;;;241.68;71.72;;;;;;;;;;5031259;28;20172;-48
2024/03/13 14:26:32;;;;;;;240.23;71.82;;;;;;;;;;5031125;28;20391;-48